sensor_id;sensor_type;location;lat;lon;timestamp;pressure;altitude;pressure_sealevel;temperature;humidity
18900;BME280;9582;52.018;6.306;2023-04-01T00:01:42;101220.25;;;9.36;57.93
18900;BME280;9582;52.018;6.306;2023-04-01T00:04:08;101213.31;;;9.35;57.90
18900;BME280;9582;52.018;6.306;2023-04-01T00:06:35;101211.63;;;9.34;57.86
18900;BME280;9582;52.018;6.306;2023-04-01T00:09:02;101211.56;;;9.35;57.82
18900;BME280;9582;52.018;6.306;2023-04-01T00:11:28;101208.09;;;9.35;57.79
18900;BME280;9582;52.018;6.306;2023-04-01T00:13:56;101215.03;;;9.36;57.76
18900;BME280;9582;52.018;6.306;2023-04-01T00:16:23;101221.13;;;9.35;57.75
18900;BME280;9582;52.018;6.306;2023-04-01T00:18:50;101214.22;;;9.34;57.74
18900;BME280;9582;52.018;6.306;2023-04-01T00:21:17;101215.91;;;9.35;57.71
18900;BME280;9582;52.018;6.306;2023-04-01T00:23:43;101213.31;;;9.35;57.68
18900;BME280;9582;52.018;6.306;2023-04-01T00:26:10;101215.91;;;9.35;57.64
18900;BME280;9582;52.018;6.306;2023-04-01T00:28:40;101222.94;;;9.34;57.63
18900;BME280;9582;52.018;6.306;2023-04-01T00:31:09;101215.09;;;9.34;57.59
18900;BME280;9582;52.018;6.306;2023-04-01T00:33:36;101224.69;;;9.34;57.57
18900;BME280;9582;52.018;6.306;2023-04-01T00:36:07;101222.94;;;9.34;57.54
18900;BME280;9582;52.018;6.306;2023-04-01T00:38:35;101220.31;;;9.34;57.49
18900;BME280;9582;52.018;6.306;2023-04-01T00:41:01;101216.84;;;9.34;57.45
18900;BME280;9582;52.018;6.306;2023-04-01T00:43:28;101219.47;;;9.34;57.42
18900;BME280;9582;52.018;6.306;2023-04-01T00:45:55;101218.59;;;9.33;57.40
18900;BME280;9582;52.018;6.306;2023-04-01T00:48:27;101233.38;;;9.34;57.36
18900;BME280;9582;52.018;6.306;2023-04-01T00:50:59;101229.03;;;9.33;57.32
18900;BME280;9582;52.018;6.306;2023-04-01T00:53:28;101237.75;;;9.32;57.32
18900;BME280;9582;52.018;6.306;2023-04-01T00:55:58;101232.53;;;9.32;57.28
18900;BME280;9582;52.018;6.306;2023-04-01T00:58:29;101242.13;;;9.32;57.26
18900;BME280;9582;52.018;6.306;2023-04-01T01:00:58;101247.34;;;9.32;57.24
18900;BME280;9582;52.018;6.306;2023-04-01T01:03:27;101248.25;;;9.31;57.22
18900;BME280;9582;52.018;6.306;2023-04-01T01:06:08;101252.56;;;9.32;57.20
18900;BME280;9582;52.018;6.306;2023-04-01T01:09:02;101258.63;;;9.32;57.18
18900;BME280;9582;52.018;6.306;2023-04-01T01:11:37;101261.31;;;9.31;57.16
18900;BME280;9582;52.018;6.306;2023-04-01T01:14:11;101263.91;;;9.31;57.15
18900;BME280;9582;52.018;6.306;2023-04-01T01:16:47;101263.91;;;9.31;57.14
18900;BME280;9582;52.018;6.306;2023-04-01T01:19:33;101264.78;;;9.31;57.13
18900;BME280;9582;52.018;6.306;2023-04-01T01:22:18;101274.28;;;9.32;57.12
18900;BME280;9582;52.018;6.306;2023-04-01T01:24:54;101268.28;;;9.30;57.10
18900;BME280;9582;52.018;6.306;2023-04-01T01:27:25;101277.00;;;9.29;57.10
18900;BME280;9582;52.018;6.306;2023-04-01T01:30:16;101279.56;;;9.31;57.09
18900;BME280;9582;52.018;6.306;2023-04-01T01:32:58;101284.72;;;9.32;57.09
18900;BME280;9582;52.018;6.306;2023-04-01T01:35:32;101291.75;;;9.30;57.08
18900;BME280;9582;52.018;6.306;2023-04-01T01:38:06;101295.22;;;9.31;57.07
18900;BME280;9582;52.018;6.306;2023-04-01T01:40:36;101294.31;;;9.32;57.07
18900;BME280;9582;52.018;6.306;2023-04-01T01:43:08;101298.69;;;9.31;57.06
18900;BME280;9582;52.018;6.306;2023-04-01T01:45:40;101299.53;;;9.32;57.06
18900;BME280;9582;52.018;6.306;2023-04-01T01:48:09;101310.81;;;9.32;57.07
18900;BME280;9582;52.018;6.306;2023-04-01T01:50:38;101300.44;;;9.31;57.05
18900;BME280;9582;52.018;6.306;2023-04-01T01:53:10;101313.44;;;9.32;57.06
18900;BME280;9582;52.018;6.306;2023-04-01T01:55:38;101312.53;;;9.33;57.05
18900;BME280;9582;52.018;6.306;2023-04-01T01:58:09;101315.19;;;9.32;57.04
18900;BME280;9582;52.018;6.306;2023-04-01T02:00:40;101318.66;;;9.32;57.04
18900;BME280;9582;52.018;6.306;2023-04-01T02:03:08;101321.25;;;9.32;57.04
18900;BME280;9582;52.018;6.306;2023-04-01T02:05:35;101321.25;;;9.32;57.02
18900;BME280;9582;52.018;6.306;2023-04-01T02:08:11;101322.13;;;9.33;57.02
18900;BME280;9582;52.018;6.306;2023-04-01T02:10:41;101324.75;;;9.33;57.02
18900;BME280;9582;52.018;6.306;2023-04-01T02:13:15;101335.19;;;9.33;57.01
18900;BME280;9582;52.018;6.306;2023-04-01T02:15:46;101341.25;;;9.33;56.99
18900;BME280;9582;52.018;6.306;2023-04-01T02:18:15;101344.72;;;9.34;57.01
18900;BME280;9582;52.018;6.306;2023-04-01T02:20:44;101349.09;;;9.33;56.98
18900;BME280;9582;52.018;6.306;2023-04-01T02:23:13;101349.97;;;9.32;56.99
18900;BME280;9582;52.018;6.306;2023-04-01T02:25:41;101361.28;;;9.33;56.99
18900;BME280;9582;52.018;6.306;2023-04-01T02:28:09;101360.38;;;9.34;56.98
18900;BME280;9582;52.018;6.306;2023-04-01T02:30:39;101373.44;;;9.34;56.98
18900;BME280;9582;52.018;6.306;2023-04-01T02:33:07;101371.72;;;9.33;56.97
18900;BME280;9582;52.018;6.306;2023-04-01T02:35:35;101383.88;;;9.34;56.97
18900;BME280;9582;52.018;6.306;2023-04-01T02:38:03;101376.94;;;9.33;56.97
18900;BME280;9582;52.018;6.306;2023-04-01T02:40:41;101389.09;;;9.34;56.97
18900;BME280;9582;52.018;6.306;2023-04-01T02:43:07;101396.06;;;9.33;56.96
18900;BME280;9582;52.018;6.306;2023-04-01T02:45:35;101393.44;;;9.33;56.96
18900;BME280;9582;52.018;6.306;2023-04-01T02:48:01;101396.84;;;9.35;56.96
18900;BME280;9582;52.018;6.306;2023-04-01T02:50:28;101401.22;;;9.35;56.95
18900;BME280;9582;52.018;6.306;2023-04-01T02:52:54;101403.03;;;9.33;56.95
18900;BME280;9582;52.018;6.306;2023-04-01T02:55:21;101409.09;;;9.33;56.95
18900;BME280;9582;52.018;6.306;2023-04-01T02:57:49;101409.97;;;9.34;56.95
18900;BME280;9582;52.018;6.306;2023-04-01T03:00:16;101418.69;;;9.33;56.94
18900;BME280;9582;52.018;6.306;2023-04-01T03:02:43;101416.06;;;9.33;56.94
18900;BME280;9582;52.018;6.306;2023-04-01T03:05:10;101412.66;;;9.31;56.94
18900;BME280;9582;52.018;6.306;2023-04-01T03:07:37;101411.84;;;9.28;56.95
18900;BME280;9582;52.018;6.306;2023-04-01T03:10:05;101414.41;;;9.30;56.95
18900;BME280;9582;52.018;6.306;2023-04-01T03:12:32;101411.00;;;9.28;56.94
18900;BME280;9582;52.018;6.306;2023-04-01T03:15:08;101418.88;;;9.26;56.94
18900;BME280;9582;52.018;6.306;2023-04-01T03:17:41;101419.78;;;9.25;56.94
18900;BME280;9582;52.018;6.306;2023-04-01T03:20:09;101418.94;;;9.23;56.94
18900;BME280;9582;52.018;6.306;2023-04-01T03:22:37;101421.56;;;9.23;56.93
18900;BME280;9582;52.018;6.306;2023-04-01T03:25:05;101425.09;;;9.22;56.93
18900;BME280;9582;52.018;6.306;2023-04-01T03:27:32;101425.03;;;9.24;56.93
18900;BME280;9582;52.018;6.306;2023-04-01T03:29:59;101432.84;;;9.24;56.93
18900;BME280;9582;52.018;6.306;2023-04-01T03:32:28;101433.72;;;9.24;56.92
18900;BME280;9582;52.018;6.306;2023-04-01T03:34:54;101439.81;;;9.23;56.93
18900;BME280;9582;52.018;6.306;2023-04-01T03:37:22;101443.34;;;9.22;56.92
18900;BME280;9582;52.018;6.306;2023-04-01T03:39:50;101439.88;;;9.22;56.93
18900;BME280;9582;52.018;6.306;2023-04-01T03:42:17;101442.50;;;9.22;56.93
18900;BME280;9582;52.018;6.306;2023-04-01T03:44:43;101459.81;;;9.24;56.92
18900;BME280;9582;52.018;6.306;2023-04-01T03:47:11;101452.06;;;9.21;56.92
18900;BME280;9582;52.018;6.306;2023-04-01T03:49:38;101476.44;;;9.20;56.95
18900;BME280;9582;52.018;6.306;2023-04-01T03:52:09;101469.53;;;9.19;56.91
18900;BME280;9582;52.018;6.306;2023-04-01T03:54:36;101458.25;;;9.17;56.92
18900;BME280;9582;52.018;6.306;2023-04-01T03:57:02;101455.66;;;9.17;56.91
18900;BME280;9582;52.018;6.306;2023-04-01T03:59:29;101455.66;;;9.17;56.90
18900;BME280;9582;52.018;6.306;2023-04-01T04:01:55;101452.25;;;9.15;56.91
18900;BME280;9582;52.018;6.306;2023-04-01T04:04:22;101454.00;;;9.15;56.90
18900;BME280;9582;52.018;6.306;2023-04-01T04:06:50;101452.25;;;9.15;56.91
18900;BME280;9582;52.018;6.306;2023-04-01T04:09:18;101454.84;;;9.15;56.91
18900;BME280;9582;52.018;6.306;2023-04-01T04:11:45;101458.31;;;9.16;56.90
18900;BME280;9582;52.018;6.306;2023-04-01T04:14:11;101446.16;;;9.15;56.91
18900;BME280;9582;52.018;6.306;2023-04-01T04:16:38;98168.13;;;9.15;56.90
18900;BME280;9582;52.018;6.306;2023-04-01T04:19:05;98420.13;;;9.14;56.90
18900;BME280;9582;52.018;6.306;2023-04-01T04:21:32;98513.19;;;9.14;56.88
18900;BME280;9582;52.018;6.306;2023-04-01T04:24:01;98556.66;;;9.13;56.88
18900;BME280;9582;52.018;6.306;2023-04-01T04:26:38;98569.69;;;9.13;56.88
18900;BME280;9582;52.018;6.306;2023-04-01T04:29:05;98586.16;;;9.14;56.88
18900;BME280;9582;52.018;6.306;2023-04-01T04:31:32;98591.47;;;9.12;56.88
18900;BME280;9582;52.018;6.306;2023-04-01T04:33:59;98599.31;;;9.12;56.88
18900;BME280;9582;52.018;6.306;2023-04-01T04:36:27;98596.81;;;9.11;56.89
18900;BME280;9582;52.018;6.306;2023-04-01T04:38:54;98604.63;;;9.11;56.89
18900;BME280;9582;52.018;6.306;2023-04-01T04:41:22;98604.72;;;9.09;56.89
18900;BME280;9582;52.018;6.306;2023-04-01T04:43:51;98604.72;;;9.09;56.89
18900;BME280;9582;52.018;6.306;2023-04-01T04:46:19;98605.69;;;9.08;56.89
18900;BME280;9582;52.018;6.306;2023-04-01T04:48:47;98603.09;;;9.08;56.89
18900;BME280;9582;52.018;6.306;2023-04-01T04:51:15;98607.47;;;9.08;56.89
18900;BME280;9582;52.018;6.306;2023-04-01T04:53:42;98602.25;;;9.08;56.89
18900;BME280;9582;52.018;6.306;2023-04-01T04:56:09;98603.19;;;9.07;56.89
18900;BME280;9582;52.018;6.306;2023-04-01T04:58:47;98603.19;;;9.07;56.89
18900;BME280;9582;52.018;6.306;2023-04-01T05:01:18;98610.16;;;9.06;56.89
18900;BME280;9582;52.018;6.306;2023-04-01T05:03:45;98604.16;;;9.06;56.89
18900;BME280;9582;52.018;6.306;2023-04-01T05:06:13;98607.69;;;9.05;56.88
18900;BME280;9582;52.018;6.306;2023-04-01T05:08:41;98614.81;;;9.03;56.89
18900;BME280;9582;52.018;6.306;2023-04-01T05:11:10;98626.03;;;9.03;56.88
18900;BME280;9582;52.018;6.306;2023-04-01T05:13:37;98622.63;;;9.03;56.89
18900;BME280;9582;52.018;6.306;2023-04-01T05:16:08;98623.56;;;9.02;56.89
18900;BME280;9582;52.018;6.306;2023-04-01T05:18:35;98628.91;;;9.00;56.89
18900;BME280;9582;52.018;6.306;2023-04-01T05:21:02;98634.09;;;9.00;56.89
18900;BME280;9582;52.018;6.306;2023-04-01T05:23:31;98635.03;;;8.99;56.88
18900;BME280;9582;52.018;6.306;2023-04-01T05:25:57;98618.56;;;8.99;56.89
18900;BME280;9582;52.018;6.306;2023-04-01T05:28:24;98602.94;;;8.99;56.89
18900;BME280;9582;52.018;6.306;2023-04-01T05:30:51;98607.31;;;8.98;56.89
18900;BME280;9582;52.018;6.306;2023-04-01T05:33:24;98602.00;;;9.00;56.90
18900;BME280;9582;52.018;6.306;2023-04-01T05:35:51;98614.19;;;8.99;56.89
18900;BME280;9582;52.018;6.306;2023-04-01T05:38:17;98621.06;;;9.00;56.90
18900;BME280;9582;52.018;6.306;2023-04-01T05:40:44;98622.94;;;8.98;56.90
18900;BME280;9582;52.018;6.306;2023-04-01T05:43:11;98627.22;;;8.99;56.90
18900;BME280;9582;52.018;6.306;2023-04-01T05:45:38;98621.28;;;8.97;56.89
18900;BME280;9582;52.018;6.306;2023-04-01T05:48:26;98623.78;;;8.99;56.89
18900;BME280;9582;52.018;6.306;2023-04-01T05:50:53;98628.16;;;8.98;56.90
18900;BME280;9582;52.018;6.306;2023-04-01T05:53:19;98628.16;;;8.98;56.90
18900;BME280;9582;52.018;6.306;2023-04-01T05:55:47;98628.16;;;8.98;56.90
18900;BME280;9582;52.018;6.306;2023-04-01T05:58:14;98636.94;;;8.97;56.88
18900;BME280;9582;52.018;6.306;2023-04-01T06:00:43;98642.16;;;8.97;56.89
18900;BME280;9582;52.018;6.306;2023-04-01T06:03:11;98646.41;;;8.98;56.89
18900;BME280;9582;52.018;6.306;2023-04-01T06:05:41;98647.22;;;8.99;56.88
18900;BME280;9582;52.018;6.306;2023-04-01T06:08:11;98653.28;;;8.99;56.89
18900;BME280;9582;52.018;6.306;2023-04-01T06:10:47;98653.28;;;8.99;56.89
18900;BME280;9582;52.018;6.306;2023-04-01T06:13:25;98658.50;;;8.99;56.88
18900;BME280;9582;52.018;6.306;2023-04-01T06:16:01;98669.75;;;9.00;56.88
18900;BME280;9582;52.018;6.306;2023-04-01T06:18:52;98674.84;;;9.01;56.88
18900;BME280;9582;52.018;6.306;2023-04-01T06:21:50;98682.56;;;9.03;56.89
18900;BME280;9582;52.018;6.306;2023-04-01T06:24:37;98691.19;;;9.03;56.89
18900;BME280;9582;52.018;6.306;2023-04-01T06:27:16;98694.56;;;9.05;56.88
18900;BME280;9582;52.018;6.306;2023-04-01T06:29:55;98700.47;;;9.07;56.89
18900;BME280;9582;52.018;6.306;2023-04-01T06:32:37;98704.53;;;9.11;56.88
18900;BME280;9582;52.018;6.306;2023-04-01T06:35:27;98709.63;;;9.13;56.88
18900;BME280;9582;52.018;6.306;2023-04-01T06:38:10;98710.34;;;9.15;56.89
18900;BME280;9582;52.018;6.306;2023-04-01T06:41:09;98722.31;;;9.17;56.90
18900;BME280;9582;52.018;6.306;2023-04-01T06:43:48;98724.00;;;9.18;56.89
18900;BME280;9582;52.018;6.306;2023-04-01T06:46:20;98735.13;;;9.20;56.90
18900;BME280;9582;52.018;6.306;2023-04-01T06:49:24;98735.66;;;9.25;56.91
18900;BME280;9582;52.018;6.306;2023-04-01T06:52:20;98738.00;;;9.28;56.90
18900;BME280;9582;52.018;6.306;2023-04-01T06:55:21;98745.63;;;9.32;56.91
18900;BME280;9582;52.018;6.306;2023-04-01T06:58:20;98747.06;;;9.36;56.93
18900;BME280;9582;52.018;6.306;2023-04-01T07:00:50;98755.59;;;9.38;56.92
18900;BME280;9582;52.018;6.306;2023-04-01T07:03:21;98759.06;;;9.38;56.93
18900;BME280;9582;52.018;6.306;2023-04-01T07:05:49;98763.44;;;9.38;56.93
18900;BME280;9582;52.018;6.306;2023-04-01T07:08:21;98770.31;;;9.39;56.93
18900;BME280;9582;52.018;6.306;2023-04-01T07:10:54;98774.47;;;9.41;56.94
18900;BME280;9582;52.018;6.306;2023-04-01T07:13:46;98776.88;;;9.44;56.94
18900;BME280;9582;52.018;6.306;2023-04-01T07:16:19;98782.59;;;9.49;56.95
18900;BME280;9582;52.018;6.306;2023-04-01T07:18:49;98780.59;;;9.53;56.96
18900;BME280;9582;52.018;6.306;2023-04-01T07:21:25;98795.06;;;9.57;56.95
18900;BME280;9582;52.018;6.306;2023-04-01T07:23:57;98804.56;;;9.58;56.96
18900;BME280;9582;52.018;6.306;2023-04-01T07:26:42;98813.84;;;9.62;56.98
18900;BME280;9582;52.018;6.306;2023-04-01T07:29:13;98815.28;;;9.66;56.99
18900;BME280;9582;52.018;6.306;2023-04-01T07:32:09;98820.06;;;9.72;57.00
18900;BME280;9582;52.018;6.306;2023-04-01T07:34:45;98833.94;;;9.72;57.01
18900;BME280;9582;52.018;6.306;2023-04-01T07:37:17;98836.31;;;9.75;57.02
18900;BME280;9582;52.018;6.306;2023-04-01T07:39:53;98841.63;;;9.74;57.04
18900;BME280;9582;52.018;6.306;2023-04-01T07:42:47;98846.53;;;9.78;57.06
18900;BME280;9582;52.018;6.306;2023-04-01T07:45:24;98852.38;;;9.82;57.07
18900;BME280;9582;52.018;6.306;2023-04-01T07:48:09;98863.53;;;9.84;57.10
18900;BME280;9582;52.018;6.306;2023-04-01T07:50:46;98864.16;;;9.88;57.13
18900;BME280;9582;52.018;6.306;2023-04-01T07:53:21;98867.25;;;9.93;57.13
18900;BME280;9582;52.018;6.306;2023-04-01T07:55:58;98857.44;;;9.96;57.16
18900;BME280;9582;52.018;6.306;2023-04-01T07:58:38;98865.97;;;9.98;57.19
18900;BME280;9582;52.018;6.306;2023-04-01T08:01:17;98874.72;;;9.97;57.22
18900;BME280;9582;52.018;6.306;2023-04-01T08:04:11;98885.41;;;9.94;57.32
18900;BME280;9582;52.018;6.306;2023-04-01T08:06:45;98890.63;;;9.94;57.40
18900;BME280;9582;52.018;6.306;2023-04-01T08:09:24;98898.44;;;9.94;57.46
18900;BME280;9582;52.018;6.306;2023-04-01T08:12:19;98902.75;;;9.95;57.51
18900;BME280;9582;52.018;6.306;2023-04-01T08:15:11;98907.13;;;9.95;57.60
18900;BME280;9582;52.018;6.306;2023-04-01T08:18:13;98908.19;;;9.92;57.73
18900;BME280;9582;52.018;6.306;2023-04-01T08:20:45;98920.50;;;9.90;57.82
18900;BME280;9582;52.018;6.306;2023-04-01T08:23:15;98926.16;;;9.84;57.96
18900;BME280;9582;52.018;6.306;2023-04-01T08:25:47;98927.94;;;9.83;58.06
18900;BME280;9582;52.018;6.306;2023-04-01T08:28:21;98933.28;;;9.82;58.15
18900;BME280;9582;52.018;6.306;2023-04-01T08:30:54;98934.31;;;9.79;58.27
18900;BME280;9582;52.018;6.306;2023-04-01T08:33:25;98943.81;;;9.80;58.33
18900;BME280;9582;52.018;6.306;2023-04-01T08:36:03;98946.44;;;9.80;58.38
18900;BME280;9582;52.018;6.306;2023-04-01T08:38:36;98952.72;;;9.78;58.48
18900;BME280;9582;52.018;6.306;2023-04-01T08:41:22;98962.22;;;9.79;58.54
18900;BME280;9582;52.018;6.306;2023-04-01T08:44:34;98968.38;;;9.78;58.62
18900;BME280;9582;52.018;6.306;2023-04-01T08:47:38;98969.19;;;9.78;58.68
18900;BME280;9582;52.018;6.306;2023-04-01T08:50:25;98981.19;;;9.81;58.69
18900;BME280;9582;52.018;6.306;2023-04-01T08:53:20;98977.75;;;9.80;58.77
18900;BME280;9582;52.018;6.306;2023-04-01T08:56:03;98981.06;;;9.82;58.80
18900;BME280;9582;52.018;6.306;2023-04-01T08:58:54;98986.28;;;9.82;58.88
18900;BME280;9582;52.018;6.306;2023-04-01T09:01:43;98997.38;;;9.86;58.91
18900;BME280;9582;52.018;6.306;2023-04-01T09:04:45;99003.50;;;9.85;59.01
18900;BME280;9582;52.018;6.306;2023-04-01T09:07:30;99010.31;;;9.88;59.13
18900;BME280;9582;52.018;6.306;2023-04-01T09:10:18;99012.59;;;9.92;59.13
18900;BME280;9582;52.018;6.306;2023-04-01T09:12:59;99016.66;;;9.96;59.13
18900;BME280;9582;52.018;6.306;2023-04-01T09:15:50;99014.34;;;10.04;59.12
18900;BME280;9582;52.018;6.306;2023-04-01T09:18:37;99020.91;;;10.10;59.08
18900;BME280;9582;52.018;6.306;2023-04-01T09:21:31;99022.28;;;10.15;59.05
18900;BME280;9582;52.018;6.306;2023-04-01T09:24:19;99030.75;;;10.19;59.14
18900;BME280;9582;52.018;6.306;2023-04-01T09:27:02;99027.44;;;10.28;59.17
18900;BME280;9582;52.018;6.306;2023-04-01T09:29:50;99032.72;;;10.39;59.18
18900;BME280;9582;52.018;6.306;2023-04-01T09:32:38;99036.31;;;10.38;59.35
18900;BME280;9582;52.018;6.306;2023-04-01T09:35:21;99036.66;;;10.44;59.65
18900;BME280;9582;52.018;6.306;2023-04-01T09:37:54;99043.75;;;10.55;59.85
18900;BME280;9582;52.018;6.306;2023-04-01T09:40:34;99050.69;;;10.67;60.09
18900;BME280;9582;52.018;6.306;2023-04-01T09:43:28;99059.41;;;10.79;61.04
18900;BME280;9582;52.018;6.306;2023-04-01T09:46:18;99067.06;;;10.93;61.81
18900;BME280;9582;52.018;6.306;2023-04-01T09:49:10;99059.53;;;11.12;62.57
18900;BME280;9582;52.018;6.306;2023-04-01T09:51:52;99068.47;;;11.21;65.08
18900;BME280;9582;52.018;6.306;2023-04-01T09:54:33;99078.50;;;11.38;68.61
18900;BME280;9582;52.018;6.306;2023-04-01T10:00:51;99087.47;;;11.69;75.80
18900;BME280;9582;52.018;6.306;2023-04-01T10:10:03;99113.34;;;11.73;100.00
18900;BME280;9582;52.018;6.306;2023-04-01T10:12:58;99116.50;;;11.66;100.00
18900;BME280;9582;52.018;6.306;2023-04-01T10:15:44;99134.69;;;11.56;100.00
18900;BME280;9582;52.018;6.306;2023-04-01T10:18:39;99140.03;;;11.54;100.00
18900;BME280;9582;52.018;6.306;2023-04-01T10:24:47;99161.88;;;11.31;100.00
18900;BME280;9582;52.018;6.306;2023-04-01T10:27:40;99170.16;;;11.25;100.00
18900;BME280;9582;52.018;6.306;2023-04-01T10:33:54;99178.63;;;11.29;100.00
18900;BME280;9582;52.018;6.306;2023-04-01T10:40:13;99206.56;;;11.28;100.00
18900;BME280;9582;52.018;6.306;2023-04-01T10:43:54;99207.78;;;11.35;100.00
18900;BME280;9582;52.018;6.306;2023-04-01T10:49:32;99227.59;;;11.27;100.00
18900;BME280;9582;52.018;6.306;2023-04-01T10:52:33;99234.78;;;11.36;100.00
18900;BME280;9582;52.018;6.306;2023-04-01T10:55:53;99248.03;;;11.45;100.00
18900;BME280;9582;52.018;6.306;2023-04-01T11:05:58;99262.69;;;11.72;100.00
18900;BME280;9582;52.018;6.306;2023-04-01T11:21:22;99303.50;;;11.98;100.00
18900;BME280;9582;52.018;6.306;2023-04-01T11:24:27;99310.19;;;12.02;100.00
18900;BME280;9582;52.018;6.306;2023-04-01T11:27:44;99312.44;;;12.06;100.00
18900;BME280;9582;52.018;6.306;2023-04-01T11:30:24;99328.03;;;12.08;100.00
18900;BME280;9582;52.018;6.306;2023-04-01T11:33:01;99335.22;;;12.17;100.00
18900;BME280;9582;52.018;6.306;2023-04-01T11:35:49;99357.91;;;12.29;100.00
18900;BME280;9582;52.018;6.306;2023-04-01T11:38:42;99368.13;;;12.21;100.00
18900;BME280;9582;52.018;6.306;2023-04-01T11:41:36;99376.50;;;12.37;100.00
18900;BME280;9582;52.018;6.306;2023-04-01T11:44:26;99391.09;;;12.52;100.00
18900;BME280;9582;52.018;6.306;2023-04-01T11:47:13;99398.78;;;12.78;100.00
18900;BME280;9582;52.018;6.306;2023-04-01T11:49:52;99412.59;;;12.80;100.00
18900;BME280;9582;52.018;6.306;2023-04-01T11:53:00;99436.66;;;12.73;100.00
18900;BME280;9582;52.018;6.306;2023-04-01T11:55:38;99455.59;;;12.66;100.00
18900;BME280;9582;52.018;6.306;2023-04-01T11:58:34;99480.91;;;12.78;100.00
18900;BME280;9582;52.018;6.306;2023-04-01T12:01:20;99502.91;;;12.99;100.00
18900;BME280;9582;52.018;6.306;2023-04-01T12:04:04;99522.88;;;13.13;100.00
18900;BME280;9582;52.018;6.306;2023-04-01T12:06:41;99536.16;;;13.22;100.00
18900;BME280;9582;52.018;6.306;2023-04-01T12:09:16;99562.28;;;13.35;100.00
18900;BME280;9582;52.018;6.306;2023-04-01T12:11:54;99573.72;;;13.12;100.00
18900;BME280;9582;52.018;6.306;2023-04-01T12:14:35;99594.00;;;12.97;100.00
18900;BME280;9582;52.018;6.306;2023-04-01T12:17:09;99605.75;;;12.81;100.00
18900;BME280;9582;52.018;6.306;2023-04-01T12:19:46;99612.75;;;12.56;100.00
18900;BME280;9582;52.018;6.306;2023-04-01T12:22:32;99620.75;;;12.55;100.00
18900;BME280;9582;52.018;6.306;2023-04-01T12:25:16;99626.41;;;12.61;100.00
18900;BME280;9582;52.018;6.306;2023-04-01T12:27:53;99627.75;;;12.67;100.00
18900;BME280;9582;52.018;6.306;2023-04-01T12:30:34;99630.59;;;12.64;100.00
18900;BME280;9582;52.018;6.306;2023-04-01T12:33:18;99629.75;;;12.63;100.00
18900;BME280;9582;52.018;6.306;2023-04-01T12:35:59;99640.22;;;12.63;100.00
18900;BME280;9582;52.018;6.306;2023-04-01T12:38:35;99643.41;;;12.56;100.00
18900;BME280;9582;52.018;6.306;2023-04-01T12:41:10;99639.66;;;12.47;100.00
18900;BME280;9582;52.018;6.306;2023-04-01T12:43:58;99646.16;;;12.42;100.00
18900;BME280;9582;52.018;6.306;2023-04-01T12:46:40;99646.47;;;12.37;100.00
18900;BME280;9582;52.018;6.306;2023-04-01T12:49:34;99647.94;;;12.41;100.00
18900;BME280;9582;52.018;6.306;2023-04-01T12:52:11;99654.34;;;12.37;100.00
18900;BME280;9582;52.018;6.306;2023-04-01T12:55:01;99654.34;;;12.37;100.00
18900;BME280;9582;52.018;6.306;2023-04-01T12:57:51;99654.03;;;12.29;100.00
18900;BME280;9582;52.018;6.306;2023-04-01T13:00:38;99666.84;;;12.21;100.00
18900;BME280;9582;52.018;6.306;2023-04-01T13:03:30;99663.94;;;12.13;100.00
18900;BME280;9582;52.018;6.306;2023-04-01T13:06:20;99668.63;;;12.08;100.00
18900;BME280;9582;52.018;6.306;2023-04-01T13:08:55;99677.66;;;12.04;100.00
18900;BME280;9582;52.018;6.306;2023-04-01T13:11:29;99683.75;;;12.04;100.00
18900;BME280;9582;52.018;6.306;2023-04-01T13:17:04;99689.50;;;11.97;100.00
18900;BME280;9582;52.018;6.306;2023-04-01T13:19:38;99691.59;;;11.92;100.00
18900;BME280;9582;52.018;6.306;2023-04-01T13:22:15;99706.16;;;11.83;100.00
18900;BME280;9582;52.018;6.306;2023-04-01T13:24:50;99712.31;;;11.70;100.00
18900;BME280;9582;52.018;6.306;2023-04-01T13:27:21;99715.88;;;11.42;100.00
18900;BME280;9582;52.018;6.306;2023-04-01T13:30:02;99719.16;;;11.19;100.00
18900;BME280;9582;52.018;6.306;2023-04-01T13:32:41;99725.84;;;10.96;100.00
18900;BME280;9582;52.018;6.306;2023-04-01T13:35:28;99727.97;;;10.77;100.00
18900;BME280;9582;52.018;6.306;2023-04-01T13:38:11;99726.94;;;10.65;100.00
18900;BME280;9582;52.018;6.306;2023-04-01T13:40:51;99735.81;;;10.63;100.00
18900;BME280;9582;52.018;6.306;2023-04-01T13:43:23;99747.03;;;10.65;100.00
18900;BME280;9582;52.018;6.306;2023-04-01T13:46:12;99745.72;;;10.58;100.00
18900;BME280;9582;52.018;6.306;2023-04-01T13:48:56;99746.66;;;10.57;100.00
18900;BME280;9582;52.018;6.306;2023-04-01T13:54:38;99742.09;;;10.60;100.00
18900;BME280;9582;52.018;6.306;2023-04-01T13:57:26;99747.50;;;10.57;100.00
18900;BME280;9582;52.018;6.306;2023-04-01T14:00:11;99757.97;;;10.57;100.00
18900;BME280;9582;52.018;6.306;2023-04-01T14:03:07;99757.84;;;10.59;100.00
18900;BME280;9582;52.018;6.306;2023-04-01T14:05:50;99751.31;;;10.66;100.00
18900;BME280;9582;52.018;6.306;2023-04-01T14:08:34;99747.78;;;10.67;100.00
18900;BME280;9582;52.018;6.306;2023-04-01T14:11:13;99754.78;;;10.66;100.00
18900;BME280;9582;52.018;6.306;2023-04-01T14:13:46;99761.78;;;10.66;100.00
18900;BME280;9582;52.018;6.306;2023-04-01T14:16:47;99760.84;;;10.67;100.00
18900;BME280;9582;52.018;6.306;2023-04-01T14:19:30;99772.31;;;10.64;100.00
18900;BME280;9582;52.018;6.306;2023-04-01T14:22:11;99773.94;;;10.67;100.00
18900;BME280;9582;52.018;6.306;2023-04-01T14:24:56;99765.13;;;10.68;100.00
18900;BME280;9582;52.018;6.306;2023-04-01T14:27:39;99779.06;;;10.68;100.00
18900;BME280;9582;52.018;6.306;2023-04-01T14:33:15;99780.81;;;10.68;100.00
18900;BME280;9582;52.018;6.306;2023-04-01T14:35:53;99787.81;;;10.67;100.00
18900;BME280;9582;52.018;6.306;2023-04-01T14:38:28;99779.97;;;10.67;100.00
18900;BME280;9582;52.018;6.306;2023-04-01T14:41:05;99794.19;;;10.63;100.00
18900;BME280;9582;52.018;6.306;2023-04-01T14:44:22;99796.13;;;10.60;100.00
18900;BME280;9582;52.018;6.306;2023-04-01T14:49:48;99806.47;;;10.61;100.00
18900;BME280;9582;52.018;6.306;2023-04-01T14:52:23;99803.78;;;10.63;100.00
18900;BME280;9582;52.018;6.306;2023-04-01T14:54:52;99799.59;;;10.60;100.00
18900;BME280;9582;52.018;6.306;2023-04-01T14:57:23;99800.34;;;10.62;100.00
18900;BME280;9582;52.018;6.306;2023-04-01T14:59:53;99799.41;;;10.63;100.00
18900;BME280;9582;52.018;6.306;2023-04-01T15:02:45;99805.66;;;10.61;100.00